This is the latest recevied weather packets stored in our database for station/object HB9BTL-13. If no packets are shown the sender has not sent any weather packets the latest 10 day(s).
| Time | Temp. | Humidity | Pressure | Rain* | Wind** | Luminosity | Snow |
|---|---|---|---|---|---|---|---|
| 1777674910 | 13.89° C | 57% | 1023.6 hPa | - | - | - | - |
| 1777674006 | 13.89° C | 56% | 1023.5 hPa | - | - | - | - |
| 1777673099 | 13.89° C | 57% | 1023.5 hPa | - | - | - | - |
| 1777672194 | 14.44° C | 55% | 1023.3 hPa | - | - | - | - |
| 1777671288 | 14.44° C | 54% | 1023.3 hPa | - | - | - | - |
| 1777670383 | 15° C | 52% | 1023.2 hPa | - | - | - | - |
| 1777669477 | 15° C | 51% | 1023.1 hPa | - | - | - | - |
| 1777668572 | 15.56° C | 49% | 1023.2 hPa | - | - | - | - |
| 1777667666 | 16.11° C | 47% | 1023.1 hPa | - | - | - | - |
| 1777666761 | 16.67° C | 44% | 1023.1 hPa | - | - | - | - |
| 1777665857 | 17.22° C | 43% | 1023.1 hPa | - | - | - | - |
| 1777664951 | 17.22° C | 43% | 1022.9 hPa | - | - | - | - |
| 1777664046 | 17.22° C | 46% | 1022.8 hPa | - | - | - | - |
| 1777663140 | 18.33° C | 43% | 1022.7 hPa | - | - | - | - |
| 1777662235 | 18.89° C | 43% | 1022.6 hPa | - | - | - | - |
| 1777661329 | 18.89° C | 44% | 1022.5 hPa | - | - | - | - |
| 1777660424 | 19.44° C | 44% | 1022.5 hPa | - | - | - | - |
| 1777659518 | 19.44° C | 44% | 1022.5 hPa | - | - | - | - |
| 1777658613 | 20° C | 43% | 1022.5 hPa | - | - | - | - |
| 1777657708 | 20.56° C | 42% | 1022.4 hPa | - | - | - | - |
| 1777656802 | 21.11° C | 38% | 1022.2 hPa | - | - | - | - |
| 1777655897 | 21.67° C | 33% | 1022.2 hPa | - | - | - | - |
| 1777654991 | 21.67° C | 33% | 1022.1 hPa | - | - | - | - |
| 1777654087 | 22.22° C | 34% | 1022.1 hPa | - | - | - | - |
| 1777653180 | 22.78° C | 34% | 1022.2 hPa | - | - | - | - |
* Rain since midnight (hover to see other rain measurements)
** Current wind speed in m/s (hover to see current wind gust speed)